Time;durP1;ratioP1;P1;durP2;ratioP2;P2;SDS_P1;SDS_P2;PMS_P1;PMS_P2;Temp;Humidity;BMP_temperature;BMP_pressure;BME280_temperature;BME280_humidity;BME280_pressure;Samples;Min_cycle;Max_cycle;Signal;HPM_P1;HPM_P2
2021/08/04 00:00:38;;;;;;;2.93;2.57;;;17.30;1.00;;;;;;5125121;27;20221;-55
2021/08/04 00:03:04;;;;;;;4.70;2.60;;;17.20;1.00;;;;;;5125922;27;20246;-55
2021/08/04 00:05:30;;;;;;;5.10;2.93;;;17.20;1.00;;;;;;5127514;27;20185;-53
2021/08/04 00:07:55;;;;;;;3.97;2.40;;;17.30;1.00;;;;;;5128979;27;20252;-53
2021/08/04 00:10:21;;;;;;;2.93;2.50;;;17.20;1.00;;;;;;5125142;27;20574;-54
2021/08/04 00:12:47;;;;;;;3.00;2.23;;;17.20;1.00;;;;;;5124882;27;20189;-55
2021/08/04 00:15:14;;;;;;;2.40;2.20;;;17.10;1.00;;;;;;5129053;27;20437;-54
2021/08/04 00:17:40;;;;;;;6.40;2.30;;;17.00;1.00;;;;;;5131225;27;20518;-53
2021/08/04 00:20:08;;;;;;;2.60;2.40;;;17.10;1.00;;;;;;5126661;27;20576;-55
2021/08/04 00:22:33;;;;;;;1.90;1.80;;;17.10;1.00;;;;;;5127180;27;20446;-53
2021/08/04 00:24:59;;;;;;;3.80;2.10;;;17.20;1.00;;;;;;5128897;27;20451;-52
2021/08/04 00:27:27;;;;;;;2.40;2.20;;;17.10;1.00;;;;;;5131293;27;20256;-56
2021/08/04 00:29:53;;;;;;;2.80;2.50;;;17.20;1.00;;;;;;5130273;27;20454;-55
2021/08/04 00:32:19;;;;;;;2.70;2.20;;;17.10;1.00;;;;;;5122851;27;20541;-55
2021/08/04 00:34:46;;;;;;;2.67;2.13;;;17.00;1.00;;;;;;5128423;27;20412;-55
2021/08/04 00:37:11;;;;;;;2.20;2.00;;;17.00;1.00;;;;;;5129962;27;20526;-53
2021/08/04 00:39:37;;;;;;;2.43;2.20;;;16.90;1.00;;;;;;5129308;27;20558;-54
2021/08/04 00:42:03;;;;;;;2.53;2.33;;;17.00;1.00;;;;;;5126133;27;20188;-55
2021/08/04 00:44:28;;;;;;;1.70;1.60;;;17.00;1.00;;;;;;5127671;27;20185;-54
2021/08/04 00:46:54;;;;;;;4.63;2.40;;;17.00;1.00;;;;;;5126672;27;20186;-54
2021/08/04 00:49:20;;;;;;;2.50;2.30;;;16.90;1.00;;;;;;5126174;27;20234;-55
2021/08/04 00:51:45;;;;;;;2.57;2.20;;;16.90;1.00;;;;;;5127163;27;20177;-55
2021/08/04 00:54:11;;;;;;;4.33;2.30;;;17.00;1.00;;;;;;5130554;27;20182;-53
2021/08/04 00:56:37;;;;;;;2.87;2.60;;;16.90;1.00;;;;;;5128724;27;20173;-53
2021/08/04 00:59:04;;;;;;;2.43;2.23;;;16.80;1.00;;;;;;5111841;27;20193;-53
2021/08/04 01:01:50;;;;;;;2.40;2.20;;;16.90;1.00;;;;;;5124715;27;20521;-54
2021/08/04 01:04:22;;;;;;;2.70;2.33;;;16.80;1.00;;;;;;5129720;27;20476;-54
2021/08/04 01:07:12;;;;;;;2.57;2.37;;;16.80;1.00;;;;;;5126791;27;20479;-53
2021/08/04 01:09:49;;;;;;;2.67;2.47;;;16.80;1.00;;;;;;5128309;27;20870;-54
2021/08/04 01:12:25;;;;;;;2.37;2.17;;;16.80;1.00;;;;;;5127140;27;20401;-53
2021/08/04 01:14:57;;;;;;;3.23;2.40;;;16.80;1.00;;;;;;5128492;27;20430;-53
2021/08/04 01:17:22;;;;;;;2.70;2.50;;;16.70;1.00;;;;;;5120045;27;20793;-52
2021/08/04 01:20:16;;;;;;;5.83;2.90;;;16.90;1.00;;;;;;5127242;27;20410;-54
2021/08/04 01:23:12;;;;;;;4.07;3.30;;;16.90;1.00;;;;;;5124810;27;20666;-54
2021/08/04 01:25:59;;;;;;;2.83;2.47;;;16.90;1.00;;;;;;5130091;27;20431;-52
2021/08/04 01:28:44;;;;;;;2.67;2.47;;;16.90;1.00;;;;;;5127228;27;20945;-55
2021/08/04 01:31:13;;;;;;;3.30;3.00;;;16.90;1.00;;;;;;5127288;27;20454;-55
2021/08/04 01:33:42;;;;;;;4.50;3.50;;;16.90;1.00;;;;;;5128684;27;20439;-54
2021/08/04 01:36:09;;;;;;;4.00;3.60;;;16.90;1.00;;;;;;5131489;27;20842;-53
2021/08/04 01:38:36;;;;;;;3.40;3.10;;;17.00;1.00;;;;;;5132654;27;20473;-53
2021/08/04 01:41:03;;;;;;;3.53;3.23;;;16.90;1.00;;;;;;5133363;27;20895;-55
2021/08/04 01:43:29;;;;;;;3.57;3.27;;;16.80;1.00;;;;;;5133407;27;20499;-53
2021/08/04 01:45:58;;;;;;;7.07;3.23;;;16.90;1.00;;;;;;5131384;27;20443;-55
2021/08/04 01:48:24;;;;;;;3.80;3.40;;;16.80;1.00;;;;;;5131449;27;20438;-54
2021/08/04 01:50:52;;;;;;;15.40;4.70;;;16.80;1.00;;;;;;5131433;27;20978;-54
2021/08/04 01:53:19;;;;;;;4.10;3.60;;;16.80;1.00;;;;;;5130980;27;21100;-53
2021/08/04 01:55:44;;;;;;;3.60;3.20;;;16.70;1.00;;;;;;5132662;27;20967;-55
2021/08/04 01:58:10;;;;;;;4.20;3.80;;;16.80;1.00;;;;;;5131725;27;20439;-55
2021/08/04 02:00:36;;;;;;;3.87;3.37;;;16.80;1.00;;;;;;5144157;27;20177;-54
2021/08/04 02:03:01;;;;;;;3.67;3.37;;;16.90;1.00;;;;;;5132786;27;20187;-53
2021/08/04 02:05:27;;;;;;;3.73;3.00;;;16.90;1.00;;;;;;5132926;27;20179;-57
2021/08/04 02:08:10;;;;;;;3.87;3.57;;;16.90;1.00;;;;;;5132795;27;20250;-56
2021/08/04 02:10:47;;;;;;;4.00;3.47;;;16.90;1.00;;;;;;5132311;27;20287;-56
2021/08/04 02:13:21;;;;;;;3.77;3.37;;;16.90;1.00;;;;;;5128854;27;20526;-56
2021/08/04 02:15:52;;;;;;;3.73;3.43;;;16.80;1.00;;;;;;5149611;27;20764;-56
2021/08/04 02:18:24;;;;;;;3.50;3.20;;;17.60;1.00;;;;;;5144594;27;20941;-56
2021/08/04 02:20:51;;;;;;;3.77;3.00;;;16.80;1.00;;;;;;5148426;27;20442;-55
2021/08/04 02:23:22;;;;;;;4.53;3.60;;;16.80;1.00;;;;;;5129614;27;20947;-55
2021/08/04 02:26:10;;;;;;;3.20;2.90;;;16.80;1.00;;;;;;5132385;27;20511;-57
2021/08/04 02:28:38;;;;;;;3.53;3.23;;;16.90;1.00;;;;;;5115164;27;20452;-55
2021/08/04 02:31:06;;;;;;;2.93;2.73;;;16.80;1.00;;;;;;5143764;27;20476;-56
2021/08/04 02:33:32;;;;;;;3.57;3.27;;;16.80;1.00;;;;;;5136126;27;20772;-54
2021/08/04 02:35:59;;;;;;;3.20;2.87;;;16.90;1.00;;;;;;5131812;27;20454;-57
2021/08/04 02:38:25;;;;;;;3.23;3.03;;;16.90;1.00;;;;;;5135466;27;21043;-56
2021/08/04 02:40:51;;;;;;;4.33;3.03;;;16.90;1.00;;;;;;5113373;27;20482;-56
2021/08/04 02:43:19;;;;;;;3.43;3.13;;;17.00;1.00;;;;;;5136897;27;20414;-56
2021/08/04 02:45:45;;;;;;;3.10;2.90;;;17.00;1.00;;;;;;5132103;27;20519;-55
2021/08/04 02:48:13;;;;;;;3.40;3.10;;;17.00;1.00;;;;;;5131884;27;20460;-55
2021/08/04 02:50:45;;;;;;;3.63;3.33;;;17.10;1.00;;;;;;5129056;27;20309;-56
2021/08/04 02:53:17;;;;;;;4.00;3.23;;;17.00;1.00;;;;;;5134443;27;21038;-56
2021/08/04 02:55:43;;;;;;;3.13;2.90;;;17.10;1.00;;;;;;5113187;27;20443;-58
2021/08/04 02:58:09;;;;;;;3.63;3.20;;;17.00;1.00;;;;;;5135272;27;20525;-56
2021/08/04 03:00:35;;;;;;;3.40;3.10;;;17.00;1.00;;;;;;5128211;27;20976;-55
2021/08/04 03:03:00;;;;;;;4.20;3.10;;;17.50;1.00;;;;;;5136677;27;20462;-57
2021/08/04 03:05:26;;;;;;;4.07;3.10;;;17.10;1.00;;;;;;5133170;27;20178;-55
2021/08/04 03:07:51;;;;;;;2.70;2.50;;;17.00;1.00;;;;;;5130055;27;20181;-56
2021/08/04 03:10:17;;;;;;;2.77;2.57;;;17.10;1.00;;;;;;5133859;27;20197;-56
2021/08/04 03:12:42;;;;;;;3.80;3.50;;;17.10;1.00;;;;;;5119430;27;20213;-55
2021/08/04 03:15:08;;;;;;;3.37;3.07;;;17.10;1.00;;;;;;5111239;27;20216;-56
2021/08/04 03:17:34;;;;;;;3.20;3.00;;;17.10;1.00;;;;;;5144936;27;20646;-57
2021/08/04 03:19:59;;;;;;;4.20;2.90;;;17.10;1.00;;;;;;5125379;27;20420;-56
2021/08/04 03:22:25;;;;;;;4.47;3.27;;;17.10;1.00;;;;;;5131851;27;20279;-56
2021/08/04 03:24:50;;;;;;;4.63;3.20;;;17.00;1.00;;;;;;5132881;27;20178;-55
2021/08/04 03:27:16;;;;;;;5.73;3.20;;;17.00;1.00;;;;;;5128178;27;20189;-55
2021/08/04 03:29:41;;;;;;;3.70;3.40;;;17.00;1.00;;;;;;5133061;27;20201;-56
2021/08/04 03:32:07;;;;;;;4.20;3.90;;;17.10;1.00;;;;;;5143881;27;20196;-55
2021/08/04 03:34:33;;;;;;;3.63;3.33;;;17.10;1.00;;;;;;5137048;27;20233;-56
2021/08/04 03:36:58;;;;;;;4.27;3.87;;;17.10;1.00;;;;;;5136510;27;20200;-55
2021/08/04 03:39:24;;;;;;;4.03;3.73;;;17.10;1.00;;;;;;5139258;27;20188;-56
2021/08/04 03:41:49;;;;;;;5.00;3.67;;;17.00;1.00;;;;;;5128950;27;20186;-55
2021/08/04 03:44:15;;;;;;;4.20;3.90;;;16.90;1.00;;;;;;5131405;27;20184;-57
2021/08/04 03:46:46;;;;;;;4.60;4.20;;;17.00;1.00;;;;;;5133677;27;20237;-55
2021/08/04 03:49:12;;;;;;;4.27;3.97;;;17.10;1.00;;;;;;5124718;27;20265;-55
2021/08/04 03:51:38;;;;;;;4.23;3.93;;;17.10;1.00;;;;;;5130933;27;20443;-57
2021/08/04 03:54:04;;;;;;;4.87;4.47;;;17.00;1.00;;;;;;5131561;27;20461;-57
2021/08/04 03:56:29;;;;;;;5.17;4.73;;;17.10;1.00;;;;;;5131045;27;20186;-56
2021/08/04 03:58:55;;;;;;;4.20;3.67;;;17.10;1.00;;;;;;5131302;27;20177;-56
2021/08/04 04:01:20;;;;;;;4.47;4.07;;;17.10;1.00;;;;;;5126683;27;20189;-57
2021/08/04 04:03:46;;;;;;;5.10;4.23;;;17.10;1.00;;;;;;5136477;27;20185;-57
2021/08/04 04:06:11;;;;;;;4.40;4.10;;;17.20;1.00;;;;;;5121657;27;20181;-56
2021/08/04 04:08:37;;;;;;;4.67;4.27;;;17.20;1.00;;;;;;5136011;27;20249;-56
2021/08/04 04:11:02;;;;;;;4.60;4.20;;;17.20;1.00;;;;;;5128760;27;20286;-58
2021/08/04 04:13:28;;;;;;;4.70;4.27;;;17.20;1.00;;;;;;5130234;27;20630;-56
2021/08/04 04:15:53;;;;;;;4.70;4.30;;;17.20;1.00;;;;;;5130276;27;20182;-55
2021/08/04 04:18:19;;;;;;;4.93;4.00;;;17.30;1.00;;;;;;5130909;27;20203;-57
2021/08/04 04:20:44;;;;;;;5.93;4.20;;;17.20;1.00;;;;;;5126245;27;20602;-56
2021/08/04 04:23:10;;;;;;;8.37;4.80;;;17.20;1.00;;;;;;5129839;27;20747;-57
2021/08/04 04:25:35;;;;;;;4.77;4.37;;;17.10;1.00;;;;;;5126933;27;20658;-57
2021/08/04 04:28:01;;;;;;;5.70;4.30;;;17.10;1.00;;;;;;5127511;27;21578;-58
2021/08/04 04:30:26;;;;;;;5.57;4.37;;;17.30;1.00;;;;;;5129973;27;20545;-56
2021/08/04 04:32:52;;;;;;;4.30;4.00;;;17.40;1.00;;;;;;5130892;27;20796;-56
2021/08/04 04:35:18;;;;;;;4.77;4.33;;;17.40;1.00;;;;;;5136999;27;20195;-55
2021/08/04 04:37:43;;;;;;;6.80;5.20;;;19.90;1.00;;;;;;5141266;27;20225;-58
2021/08/04 04:40:09;;;;;;;4.73;4.30;;;17.50;1.00;;;;;;5130653;27;20205;-57
2021/08/04 04:42:35;;;;;;;7.77;4.60;;;17.50;1.00;;;;;;5130593;27;20191;-56
2021/08/04 04:45:00;;;;;;;6.13;5.63;;;17.60;1.00;;;;;;5130884;27;20425;-57
2021/08/04 04:47:26;;;;;;;5.03;4.60;;;17.60;1.00;;;;;;5126487;27;20203;-57
2021/08/04 04:49:51;;;;;;;6.40;5.30;;;17.70;1.00;;;;;;5128761;27;20209;-57
2021/08/04 04:52:17;;;;;;;5.50;5.00;;;17.80;1.00;;;;;;5126482;27;20610;-56
2021/08/04 04:54:42;;;;;;;5.90;5.40;;;17.80;1.00;;;;;;5130203;27;20192;-56
2021/08/04 04:57:08;;;;;;;5.43;5.00;;;17.80;1.00;;;;;;5129127;27;20189;-57
2021/08/04 04:59:33;;;;;;;6.87;5.23;;;17.80;1.00;;;;;;5129595;27;20699;-56
2021/08/04 05:01:59;;;;;;;5.50;5.00;;;17.70;1.00;;;;;;5123953;27;20178;-55
2021/08/04 05:04:24;;;;;;;6.50;5.90;;;17.70;1.00;;;;;;5129293;27;20190;-56
2021/08/04 05:06:50;;;;;;;6.00;5.40;;;17.80;1.00;;;;;;5111660;27;20275;-57
2021/08/04 05:09:15;;;;;;;7.40;6.40;;;17.70;1.00;;;;;;5129243;27;20188;-57
2021/08/04 05:11:41;;;;;;;5.70;5.20;;;17.70;1.00;;;;;;5131316;27;20188;-56
2021/08/04 05:14:06;;;;;;;5.57;5.07;;;17.70;1.00;;;;;;5149578;27;20180;-59
2021/08/04 05:16:32;;;;;;;5.40;4.97;;;17.80;1.00;;;;;;5114387;27;20182;-57
2021/08/04 05:18:57;;;;;;;6.10;5.60;;;17.80;1.00;;;;;;5133964;27;20178;-56
2021/08/04 05:21:23;;;;;;;7.33;5.00;;;18.30;1.00;;;;;;5132046;27;20701;-57
2021/08/04 05:23:49;;;;;;;5.80;5.20;;;17.90;1.00;;;;;;5133659;27;20181;-57
2021/08/04 05:26:14;;;;;;;5.53;5.03;;;18.10;1.00;;;;;;5133815;27;20239;-57
2021/08/04 05:28:40;;;;;;;8.47;6.17;;;18.10;1.00;;;;;;5133610;27;20195;-58
2021/08/04 05:31:05;;;;;;;5.83;5.30;;;18.20;1.00;;;;;;5129219;27;20782;-56
2021/08/04 05:33:31;;;;;;;4.80;4.40;;;18.30;1.00;;;;;;5137105;27;20304;-56
2021/08/04 05:35:56;;;;;;;5.93;5.43;;;18.30;1.00;;;;;;5134262;27;20225;-57
2021/08/04 05:38:22;;;;;;;5.30;4.50;;;18.30;1.00;;;;;;5132652;27;20185;-58
2021/08/04 05:40:47;;;;;;;6.47;5.83;;;18.40;1.00;;;;;;5132800;27;20648;-56
2021/08/04 05:43:13;;;;;;;5.07;4.67;;;18.40;1.00;;;;;;5144403;27;20580;-56
2021/08/04 05:45:39;;;;;;;5.77;4.90;;;18.60;1.00;;;;;;5149359;27;20231;-55
2021/08/04 05:48:05;;;;;;;7.37;5.20;;;18.60;1.00;;;;;;5130529;27;20444;-57
2021/08/04 05:50:32;;;;;;;5.50;4.90;;;18.60;1.00;;;;;;5132923;27;20201;-56
2021/08/04 05:52:57;;;;;;;4.80;4.40;;;20.20;1.00;;;;;;5131533;27;20470;-58
2021/08/04 05:55:23;;;;;;;4.87;4.30;;;18.90;1.00;;;;;;5133001;27;20522;-57
2021/08/04 05:57:48;;;;;;;4.43;4.03;;;19.00;1.00;;;;;;5133909;27;20200;-58
2021/08/04 06:00:14;;;;;;;4.67;4.23;;;19.20;1.00;;;;;;5113925;27;20181;-55
2021/08/04 06:02:40;;;;;;;4.20;3.80;;;19.30;1.00;;;;;;5130065;27;20568;-56
2021/08/04 06:05:06;;;;;;;5.60;3.83;;;19.50;1.00;;;;;;5128938;27;20177;-57
2021/08/04 06:07:31;;;;;;;4.10;3.80;;;19.60;1.00;;;;;;5132024;27;20189;-56
2021/08/04 06:09:57;;;;;;;4.30;3.70;;;19.80;1.00;;;;;;5132237;27;20484;-57
2021/08/04 06:12:22;;;;;;;5.17;4.10;;;19.80;1.00;;;;;;5130302;27;20178;-57
2021/08/04 06:14:48;;;;;;;3.70;3.40;;;19.90;1.00;;;;;;5131682;27;20613;-58
2021/08/04 06:17:13;;;;;;;3.90;3.30;;;19.90;1.00;;;;;;5129199;27;20190;-58
2021/08/04 06:19:39;;;;;;;4.30;3.70;;;19.90;1.00;;;;;;5132612;27;20177;-57
2021/08/04 06:22:04;;;;;;;7.57;4.33;;;19.80;1.00;;;;;;5130999;27;20178;-57
2021/08/04 06:24:30;;;;;;;4.13;3.73;;;19.70;1.00;;;;;;5133440;27;20184;-57
2021/08/04 06:26:56;;;;;;;4.40;4.00;;;19.70;1.00;;;;;;5132190;27;20185;-57
2021/08/04 06:29:22;;;;;;;3.27;3.07;;;19.90;1.00;;;;;;5131062;27;20273;-57
2021/08/04 06:31:48;;;;;;;4.20;3.20;;;20.10;1.00;;;;;;5132408;27;20188;-58
2021/08/04 06:34:14;;;;;;;5.10;2.70;;;20.30;1.00;;;;;;5128903;27;20442;-57
2021/08/04 06:36:40;;;;;;;5.70;3.07;;;20.50;1.00;;;;;;5132576;27;20538;-58
2021/08/04 06:39:05;;;;;;;4.20;3.13;;;20.70;1.00;;;;;;5132492;27;20185;-57
2021/08/04 06:41:31;;;;;;;4.57;3.60;;;20.70;1.00;;;;;;5132093;27;20276;-58
2021/08/04 06:43:56;;;;;;;3.60;3.30;;;20.80;1.00;;;;;;5132247;27;20185;-57
2021/08/04 06:46:22;;;;;;;3.63;3.00;;;20.90;1.00;;;;;;5095396;27;20296;-57
2021/08/04 06:48:47;;;;;;;6.80;4.00;;;20.90;1.00;;;;;;5128848;27;20190;-56
2021/08/04 06:51:16;;;;;;;3.90;3.43;;;21.00;1.00;;;;;;5132831;27;20213;-58
2021/08/04 06:53:42;;;;;;;4.30;3.90;;;21.20;1.00;;;;;;5131546;27;20244;-57
2021/08/04 06:56:07;;;;;;;4.60;4.20;;;21.30;1.00;;;;;;5132382;27;21032;-57
2021/08/04 06:58:33;;;;;;;3.57;3.27;;;21.50;1.00;;;;;;5130230;27;20177;-58
2021/08/04 07:00:58;;;;;;;3.50;3.20;;;21.60;1.00;;;;;;5130090;27;20638;-58
2021/08/04 07:03:24;;;;;;;3.67;3.37;;;21.70;1.00;;;;;;5130909;27;20304;-59
2021/08/04 07:05:50;;;;;;;6.60;3.90;;;21.80;1.00;;;;;;5127542;27;20186;-57
2021/08/04 07:08:18;;;;;;;3.93;3.33;;;21.90;1.00;;;;;;5131743;27;20187;-57
2021/08/04 07:10:48;;;;;;;3.80;3.50;;;22.10;1.00;;;;;;5129044;27;20213;-58
2021/08/04 07:13:14;;;;;;;4.53;3.73;;;22.30;1.00;;;;;;5129472;27;20467;-58
2021/08/04 07:15:39;;;;;;;6.30;3.67;;;22.50;1.00;;;;;;5130026;27;20902;-57
2021/08/04 07:18:09;;;;;;;6.80;3.10;;;22.60;1.00;;;;;;5113081;27;20857;-56
2021/08/04 07:20:36;;;;;;;3.47;3.10;;;22.80;1.00;;;;;;5133952;27;20190;-57
2021/08/04 07:23:02;;;;;;;5.73;2.43;;;22.90;1.00;;;;;;5137945;27;20441;-57
2021/08/04 07:25:28;;;;;;;3.23;2.80;;;23.00;1.00;;;;;;5132141;27;20434;-58
2021/08/04 07:27:53;;;;;;;6.37;2.83;;;23.10;1.00;;;;;;5130539;27;20533;-57
2021/08/04 07:30:19;;;;;;;3.00;2.80;;;23.10;1.00;;;;;;5129731;27;20209;-57
2021/08/04 07:32:44;;;;;;;3.87;2.70;;;23.10;1.00;;;;;;5126546;27;20276;-59
2021/08/04 07:35:10;;;;;;;3.23;2.50;;;23.00;1.00;;;;;;5130317;27;20731;-57
2021/08/04 07:37:36;;;;;;;5.03;3.30;;;23.00;1.00;;;;;;5131682;27;20711;-57
2021/08/04 07:40:06;;;;;;;4.50;2.77;;;23.20;1.00;;;;;;5134453;27;20184;-57
2021/08/04 07:42:31;;;;;;;2.80;2.57;;;23.10;1.00;;;;;;5130162;27;20461;-57
2021/08/04 07:44:57;;;;;;;4.70;3.07;;;23.30;1.00;;;;;;5112137;27;20455;-58
2021/08/04 07:47:23;;;;;;;3.80;3.13;;;23.40;1.00;;;;;;5127591;27;20257;-56
2021/08/04 07:49:48;;;;;;;4.10;3.17;;;23.50;1.00;;;;;;5132693;27;20212;-57
2021/08/04 07:52:14;;;;;;;4.73;2.57;;;23.50;1.00;;;;;;5130469;27;20470;-57
2021/08/04 07:54:40;;;;;;;2.63;2.43;;;23.60;1.00;;;;;;5132728;27;20181;-58
2021/08/04 07:57:06;;;;;;;3.67;3.37;;;23.90;1.00;;;;;;5127944;27;20178;-57
2021/08/04 07:59:31;;;;;;;3.10;2.80;;;23.90;1.00;;;;;;5131461;27;20185;-58
2021/08/04 08:01:57;;;;;;;3.23;3.03;;;24.10;1.00;;;;;;5129616;27;20446;-55
2021/08/04 08:04:22;;;;;;;4.23;2.63;;;24.30;1.00;;;;;;5128738;27;20264;-56
2021/08/04 08:06:49;;;;;;;5.00;3.03;;;24.20;1.00;;;;;;5130717;27;20328;-58
2021/08/04 08:09:19;;;;;;;3.30;2.77;;;24.30;1.00;;;;;;5129690;27;20177;-57
2021/08/04 08:11:44;;;;;;;3.90;3.30;;;24.00;1.00;;;;;;5128445;27;20439;-57
2021/08/04 08:14:10;;;;;;;3.20;2.60;;;23.80;1.00;;;;;;5141492;27;20448;-56
2021/08/04 08:16:35;;;;;;;4.57;2.60;;;23.90;1.00;;;;;;5145616;27;20530;-57
2021/08/04 08:19:01;;;;;;;3.50;3.20;;;24.00;1.00;;;;;;5129219;27;20271;-57
2021/08/04 08:21:27;;;;;;;3.60;3.30;;;24.10;1.00;;;;;;5130820;27;20227;-55
2021/08/04 08:23:52;;;;;;;3.83;3.03;;;24.00;1.00;;;;;;5148799;27;20188;-56
2021/08/04 08:26:21;;;;;;;4.03;2.77;;;23.90;1.00;;;;;;5139042;27;20185;-57
2021/08/04 08:28:46;;;;;;;6.57;2.83;;;23.90;1.00;;;;;;5132424;27;20538;-58
2021/08/04 08:31:12;;;;;;;3.00;2.47;;;23.90;1.00;;;;;;5137135;27;20463;-57
2021/08/04 08:33:37;;;;;;;3.00;2.33;;;24.00;1.00;;;;;;5128044;27;20189;-56
2021/08/04 08:36:03;;;;;;;5.80;2.70;;;24.20;1.00;;;;;;5129369;27;20177;-56
2021/08/04 08:38:29;;;;;;;3.83;2.60;;;24.50;1.00;;;;;;5131809;27;20181;-56
2021/08/04 08:40:54;;;;;;;2.40;2.20;;;24.50;1.00;;;;;;5145185;27;20180;-57
2021/08/04 08:43:20;;;;;;;3.80;2.57;;;24.80;1.00;;;;;;5130352;27;20646;-56
2021/08/04 08:45:50;;;;;;;3.30;2.23;;;25.30;1.00;;;;;;5135811;27;20176;-56
2021/08/04 08:48:17;;;;;;;2.60;2.40;;;25.90;1.00;;;;;;5148893;27;20632;-57
2021/08/04 08:50:45;;;;;;;2.73;2.40;;;26.30;1.00;;;;;;5142904;27;20450;-56
2021/08/04 08:53:11;;;;;;;3.90;2.67;;;26.30;1.00;;;;;;5132182;27;20527;-58
2021/08/04 08:55:37;;;;;;;3.33;2.07;;;25.90;1.00;;;;;;5139299;27;20429;-56
2021/08/04 08:58:02;;;;;;;2.70;2.50;;;25.60;1.00;;;;;;5138803;27;20425;-56
2021/08/04 09:00:28;;;;;;;2.27;2.07;;;25.40;1.00;;;;;;5147326;27;20502;-57
2021/08/04 09:02:53;;;;;;;5.43;2.57;;;25.30;1.00;;;;;;5150992;27;20500;-56
2021/08/04 09:05:20;;;;;;;3.20;3.00;;;25.10;1.00;;;;;;5140795;27;20193;-55
2021/08/04 09:07:47;;;;;;;3.00;2.70;;;24.80;1.00;;;;;;5151711;27;20478;-56
2021/08/04 09:10:22;;;;;;;2.70;2.50;;;24.50;1.00;;;;;;5135454;27;20460;-56
2021/08/04 09:12:49;;;;;;;8.30;3.07;;;24.60;1.00;;;;;;5149060;27;20552;-55
2021/08/04 09:15:30;;;;;;;7.67;2.83;;;25.00;1.00;;;;;;5140515;27;20901;-57
2021/08/04 09:18:04;;;;;;;3.47;2.43;;;25.60;1.00;;;;;;5136376;27;20846;-57
2021/08/04 09:20:53;;;;;;;1.97;1.83;;;25.90;1.00;;;;;;5142186;27;20528;-55
2021/08/04 09:23:23;;;;;;;3.03;2.50;;;26.00;1.00;;;;;;5136630;27;20470;-57
2021/08/04 09:26:11;;;;;;;2.23;2.00;;;25.60;1.00;;;;;;5144511;27;20727;-57
2021/08/04 09:29:09;;;;;;;2.87;2.53;;;25.90;1.00;;;;;;5144201;27;20959;-56
2021/08/04 09:31:41;;;;;;;3.60;2.97;;;26.00;1.00;;;;;;5132195;27;20838;-57
2021/08/04 09:34:38;;;;;;;2.67;2.40;;;26.10;1.00;;;;;;5142343;27;20418;-55
2021/08/04 09:37:12;;;;;;;2.80;2.60;;;26.30;1.00;;;;;;5142845;27;21146;-57
2021/08/04 09:39:42;;;;;;;3.10;2.70;;;26.30;1.00;;;;;;5118178;27;20448;-55
2021/08/04 09:42:08;;;;;;;2.33;2.13;;;26.30;1.00;;;;;;5147526;27;20518;-56
2021/08/04 09:44:34;;;;;;;2.30;2.10;;;26.10;1.00;;;;;;5135681;27;20919;-56
2021/08/04 09:47:11;;;;;;;2.30;2.10;;;26.10;1.00;;;;;;5141594;27;20460;-57
2021/08/04 09:49:38;;;;;;;3.27;2.50;;;26.10;1.00;;;;;;5139107;27;20433;-55
2021/08/04 09:52:11;;;;;;;5.40;2.30;;;26.00;1.00;;;;;;5136660;27;20445;-57
2021/08/04 09:54:42;;;;;;;2.80;2.10;;;25.70;1.00;;;;;;5132785;27;20435;-57
2021/08/04 09:57:08;;;;;;;2.90;2.50;;;25.20;1.00;;;;;;5141314;27;20768;-56
2021/08/04 09:59:34;;;;;;;2.50;2.30;;;25.00;1.00;;;;;;5132477;27;20540;-58
2021/08/04 10:02:01;;;;;;;3.00;2.43;;;24.70;1.00;;;;;;5145776;27;20456;-57
2021/08/04 10:04:27;;;;;;;3.13;2.83;;;23.90;1.00;;;;;;5147001;27;20206;-55
2021/08/04 10:07:07;;;;;;;5.23;3.10;;;23.60;1.00;;;;;;5139331;27;20520;-57
2021/08/04 10:09:34;;;;;;;5.00;2.40;;;23.30;1.00;;;;;;5136418;27;20182;-58
2021/08/04 10:11:59;;;;;;;7.60;3.80;;;22.90;1.00;;;;;;5132767;27;20442;-58
2021/08/04 10:14:25;;;;;;;10.83;5.60;;;22.60;1.00;;;;;;5113415;27;20470;-62
2021/08/04 10:16:52;;;;;;;7.00;5.00;;;22.00;1.00;;;;;;5134969;27;20545;-57
2021/08/04 10:19:18;;;;;;;5.20;4.70;;;21.20;1.00;;;;;;5131968;27;20180;-57
2021/08/04 10:21:48;;;;;;;5.80;4.30;;;20.60;1.00;;;;;;5129800;27;20532;-57
2021/08/04 10:24:15;;;;;;;5.30;4.60;;;20.50;1.00;;;;;;5132639;27;20946;-56
2021/08/04 10:26:42;;;;;;;8.43;5.70;;;20.30;1.00;;;;;;5133623;27;20804;-57
2021/08/04 10:29:09;;;;;;;5.30;4.80;;;20.30;1.00;;;;;;5133182;27;20453;-57
2021/08/04 10:31:35;;;;;;;4.63;4.30;;;20.40;1.00;;;;;;5133119;27;20462;-57
2021/08/04 10:34:01;;;;;;;6.97;5.00;;;20.40;1.00;;;;;;5133185;27;20787;-58
2021/08/04 10:36:38;;;;;;;11.80;5.30;;;20.80;1.00;;;;;;5133131;27;20475;-57
2021/08/04 10:39:10;;;;;;;6.87;3.93;;;21.10;1.00;;;;;;5133274;27;20502;-56
2021/08/04 10:41:43;;;;;;;6.47;4.63;;;21.60;1.00;;;;;;5132366;27;20522;-57
2021/08/04 10:44:22;;;;;;;3.93;3.53;;;22.10;1.00;;;;;;5132997;27;20410;-59
2021/08/04 10:46:47;;;;;;;3.27;2.83;;;22.60;1.00;;;;;;5114309;27;20425;-56
2021/08/04 10:49:16;;;;;;;2.87;2.67;;;23.10;1.00;;;;;;5132459;27;20842;-56
2021/08/04 10:51:52;;;;;;;4.83;2.70;;;23.50;1.00;;;;;;5131046;27;20212;-56
2021/08/04 10:54:17;;;;;;;6.97;3.60;;;24.10;1.00;;;;;;5132172;27;20427;-55
2021/08/04 10:56:43;;;;;;;2.37;2.17;;;24.70;1.00;;;;;;5114126;27;20446;-57
2021/08/04 10:59:09;;;;;;;2.87;2.60;;;25.40;1.00;;;;;;5132516;27;20204;-56
2021/08/04 11:01:35;;;;;;;3.80;1.90;;;25.60;1.00;;;;;;5131962;27;20260;-57
2021/08/04 11:04:00;;;;;;;3.90;2.20;;;25.60;1.00;;;;;;5132754;27;20230;-56
2021/08/04 11:06:26;;;;;;;5.57;2.90;;;25.70;1.00;;;;;;5132275;27;20838;-57
2021/08/04 11:09:11;;;;;;;24.07;5.53;;;25.80;1.00;;;;;;5131403;27;20197;-57
2021/08/04 11:11:49;;;;;;;9.30;2.70;;;26.00;1.00;;;;;;5134046;27;20561;-57
2021/08/04 11:14:40;;;;;;;9.93;4.13;;;25.70;1.00;;;;;;5152887;27;20521;-57
2021/08/04 11:17:16;;;;;;;9.33;2.53;;;25.60;1.00;;;;;;5148591;27;20514;-57
2021/08/04 11:20:04;;;;;;;16.77;4.03;;;25.60;1.00;;;;;;5135005;27;20417;-56
2021/08/04 11:22:39;;;;;;;7.63;2.57;;;25.30;1.00;;;;;;5152718;27;20441;-56
2021/08/04 11:25:11;;;;;;;2.73;2.00;;;25.00;1.00;;;;;;5136383;27;20505;-56
2021/08/04 11:27:56;;;;;;;2.10;2.00;;;24.80;1.00;;;;;;5140502;27;20449;-57
2021/08/04 11:30:33;;;;;;;2.33;2.13;;;25.10;1.00;;;;;;5152592;27;20449;-58
2021/08/04 11:33:17;;;;;;;3.23;2.90;;;24.80;1.00;;;;;;5147445;27;20769;-57
2021/08/04 11:36:04;;;;;;;3.17;2.87;;;24.30;1.00;;;;;;5122975;27;20430;-56
2021/08/04 11:38:51;;;;;;;3.20;3.00;;;23.90;1.00;;;;;;5143108;27;20490;-58
2021/08/04 11:41:22;;;;;;;3.63;2.90;;;23.40;1.00;;;;;;5133586;27;20405;-58
2021/08/04 11:43:49;;;;;;;4.60;3.40;;;23.40;1.00;;;;;;5131961;27;20431;-56
2021/08/04 11:46:33;;;;;;;3.03;2.30;;;23.20;1.00;;;;;;5130512;27;20430;-58
2021/08/04 11:49:00;;;;;;;4.00;2.80;;;22.90;1.00;;;;;;5131456;27;20953;-57
2021/08/04 11:51:37;;;;;;;3.90;3.07;;;23.00;1.00;;;;;;5131455;27;20804;-57
2021/08/04 11:54:06;;;;;;;3.23;2.80;;;23.20;1.00;;;;;;5134943;27;20457;-56
2021/08/04 11:56:33;;;;;;;3.13;2.50;;;23.40;1.00;;;;;;5145745;27;20792;-57
2021/08/04 11:59:01;;;;;;;3.50;2.20;;;23.70;1.00;;;;;;5142943;27;20469;-57
2021/08/04 12:01:27;;;;;;;5.03;3.27;;;23.80;1.00;;;;;;5124529;27;20744;-58
2021/08/04 12:04:10;;;;;;;6.73;3.53;;;24.00;1.00;;;;;;5134947;27;20438;-57
2021/08/04 12:06:37;;;;;;;4.73;3.53;;;24.20;1.00;;;;;;5133004;27;20442;-58
2021/08/04 12:09:20;;;;;;;3.63;2.70;;;24.30;1.00;;;;;;5144485;27;20409;-55
2021/08/04 12:11:49;;;;;;;5.87;2.93;;;24.50;1.00;;;;;;5138581;27;20450;-57
2021/08/04 12:14:18;;;;;;;5.73;3.30;;;24.50;1.00;;;;;;5140301;27;20431;-56
2021/08/04 12:16:45;;;;;;;2.97;2.77;;;24.60;1.00;;;;;;5113701;27;20435;-57
2021/08/04 12:19:11;;;;;;;14.93;5.13;;;24.70;1.00;;;;;;5140177;27;20403;-56
2021/08/04 12:21:37;;;;;;;2.93;2.73;;;24.90;1.00;;;;;;5140986;27;20405;-56
2021/08/04 12:24:02;;;;;;;7.67;3.53;;;25.00;1.00;;;;;;5145044;27;20408;-57
2021/08/04 12:26:44;;;;;;;2.80;2.60;;;25.00;1.00;;;;;;5142529;27;20177;-57
2021/08/04 12:29:18;;;;;;;2.90;2.70;;;24.70;1.00;;;;;;5130881;27;20539;-57
2021/08/04 12:32:03;;;;;;;6.00;2.70;;;24.90;1.00;;;;;;5137963;27;20474;-58
2021/08/04 12:34:29;;;;;;;5.60;3.00;;;25.00;1.00;;;;;;5144298;27;20433;-57
2021/08/04 12:36:55;;;;;;;12.63;3.60;;;24.80;1.00;;;;;;5146216;27;20442;-57
2021/08/04 12:39:31;;;;;;;7.20;3.03;;;24.60;1.00;;;;;;5133405;27;20436;-58
2021/08/04 12:41:56;;;;;;;2.50;2.30;;;24.50;1.00;;;;;;5148592;27;20326;-56
2021/08/04 12:44:23;;;;;;;4.90;2.50;;;24.70;1.00;;;;;;5135425;27;20536;-56
2021/08/04 12:46:49;;;;;;;2.30;2.10;;;25.00;1.00;;;;;;5151494;27;20188;-58
2021/08/04 12:49:17;;;;;;;2.97;2.13;;;25.20;1.00;;;;;;5150152;27;20968;-57
2021/08/04 12:51:54;;;;;;;2.17;1.97;;;25.40;1.00;;;;;;5146441;27;20481;-58
2021/08/04 12:54:31;;;;;;;2.00;1.80;;;25.60;1.00;;;;;;5141020;27;20437;-57
2021/08/04 12:56:58;;;;;;;2.20;2.00;;;25.70;1.00;;;;;;5146040;27;20822;-56
2021/08/04 12:59:40;;;;;;;2.30;2.10;;;25.60;1.00;;;;;;5146170;27;20575;-58
2021/08/04 13:02:08;;;;;;;2.10;1.90;;;25.70;1.00;;;;;;5112341;27;20450;-57
2021/08/04 13:04:35;;;;;;;2.00;1.90;;;25.40;1.00;;;;;;5136614;27;20450;-57